Time,TemperatureF,DewpointF,PressureIn,WindDirection,WindDirectionDegrees,WindSpeedMPH,WindSpeedGustMPH,Humidity,HourlyPrecipIn,Conditions,Clouds,dailyrainin,SoftwareType,DateUTC
2013-08-03 00:04:00,66.2,66.0,29.84,SE,136,0.0,0.0,98,0.00,,,0.00,weatherlink.com 1.10,2013-08-03 04:04:00,
2013-08-03 00:19:00,66.0,66.0,29.84,SE,136,0.0,0.0,98,0.00,,,0.00,weatherlink.com 1.10,2013-08-03 04:19:00,
2013-08-03 00:34:00,65.9,65.0,29.84,SE,137,0.0,1.0,98,0.00,,,0.00,weatherlink.com 1.10,2013-08-03 04:34:00,
2013-08-03 00:49:00,65.8,65.0,29.84,SE,137,0.0,0.0,98,0.00,,,0.00,weatherlink.com 1.10,2013-08-03 04:49:00,
2013-08-03 01:04:00,65.6,65.0,29.83,SE,137,0.0,0.0,98,0.00,,,0.00,weatherlink.com 1.10,2013-08-03 05:04:00,
2013-08-03 01:19:00,65.6,65.0,29.83,SE,136,0.0,1.0,98,0.00,,,0.00,weatherlink.com 1.10,2013-08-03 05:19:00,
2013-08-03 01:34:00,65.3,65.0,29.82,SE,137,0.0,0.0,98,0.00,,,0.00,weatherlink.com 1.10,2013-08-03 05:34:00,
2013-08-03 01:49:00,64.9,64.0,29.82,SE,137,0.0,0.0,98,0.00,,,0.00,weatherlink.com 1.10,2013-08-03 05:49:00,
2013-08-03 02:05:00,64.7,64.0,29.81,SE,136,0.0,1.0,98,0.00,,,0.00,weatherlink.com 1.10,2013-08-03 06:05:00,
2013-08-03 02:20:00,64.5,64.0,29.81,SE,137,0.0,1.0,98,0.00,,,0.00,weatherlink.com 1.10,2013-08-03 06:20:00,
2013-08-03 02:35:00,64.0,64.0,29.80,SE,136,0.0,0.0,98,0.00,,,0.00,weatherlink.com 1.10,2013-08-03 06:35:00,
2013-08-03 02:50:00,63.8,63.0,29.80,SE,136,0.0,0.0,98,0.00,,,0.00,weatherlink.com 1.10,2013-08-03 06:50:00,
2013-08-03 03:05:00,63.5,63.0,29.79,SE,137,0.0,0.0,98,0.00,,,0.00,weatherlink.com 1.10,2013-08-03 07:05:00,
2013-08-03 03:20:00,63.4,63.0,29.79,SE,137,0.0,0.0,99,0.00,,,0.00,weatherlink.com 1.10,2013-08-03 07:20:00,
2013-08-03 03:35:00,63.4,63.0,29.79,SE,136,0.0,1.0,99,0.00,,,0.00,weatherlink.com 1.10,2013-08-03 07:35:00,
2013-08-03 03:50:00,63.3,63.0,29.79,SE,136,0.0,0.0,99,0.00,,,0.00,weatherlink.com 1.10,2013-08-03 07:50:00,
2013-08-03 04:05:00,63.0,63.0,29.79,SE,136,0.0,0.0,99,0.00,,,0.00,weatherlink.com 1.10,2013-08-03 08:05:00,
2013-08-03 04:20:00,62.9,63.0,29.79,SE,136,0.0,0.0,99,0.00,,,0.00,weatherlink.com 1.10,2013-08-03 08:20:00,
2013-08-03 04:35:00,62.7,63.0,29.79,SE,136,0.0,0.0,99,0.00,,,0.00,weatherlink.com 1.10,2013-08-03 08:35:00,
2013-08-03 04:50:00,62.7,63.0,29.80,SE,136,0.0,0.0,99,0.00,,,0.00,weatherlink.com 1.10,2013-08-03 08:50:00,
2013-08-03 05:05:00,62.5,62.0,29.80,SE,137,0.0,0.0,99,0.00,,,0.00,weatherlink.com 1.10,2013-08-03 09:05:00,
2013-08-03 05:20:00,62.8,63.0,29.80,SE,136,1.0,1.0,99,0.00,,,0.00,weatherlink.com 1.10,2013-08-03 09:20:00,
2013-08-03 05:35:00,62.6,62.0,29.80,SE,136,0.0,1.0,99,0.00,,,0.00,weatherlink.com 1.10,2013-08-03 09:35:00,
2013-08-03 05:50:00,62.6,62.0,29.80,SE,137,0.0,0.0,99,0.00,,,0.00,weatherlink.com 1.10,2013-08-03 09:50:00,
2013-08-03 06:05:00,62.7,63.0,29.81,SE,136,0.0,0.0,99,0.00,,,0.00,weatherlink.com 1.10,2013-08-03 10:05:00,
2013-08-03 06:20:00,62.7,63.0,29.80,SE,136,0.0,1.0,99,0.00,,,0.00,weatherlink.com 1.10,2013-08-03 10:20:00,
2013-08-03 06:35:00,63.1,63.0,29.80,SE,136,0.0,1.0,100,0.00,,,0.00,weatherlink.com 1.10,2013-08-03 10:35:00,
2013-08-03 06:50:00,63.4,63.0,29.80,SE,138,0.0,0.0,99,0.00,,,0.00,weatherlink.com 1.10,2013-08-03 10:50:00,
2013-08-03 07:05:00,63.8,64.0,29.80,SE,139,0.0,1.0,99,0.00,,,0.00,weatherlink.com 1.10,2013-08-03 11:05:00,
2013-08-03 07:20:00,64.2,64.0,29.79,SE,137,1.0,1.0,99,0.00,,,0.00,weatherlink.com 1.10,2013-08-03 11:20:00,
2013-08-03 07:35:00,65.0,65.0,29.80,SE,136,0.0,0.0,99,0.00,,,0.00,weatherlink.com 1.10,2013-08-03 11:35:00,
2013-08-03 07:50:00,65.7,65.0,29.80,SSE,150,0.0,1.0,97,0.00,,,0.00,weatherlink.com 1.10,2013-08-03 11:50:00,
2013-08-03 08:05:00,66.6,65.0,29.80,SE,139,0.0,1.0,93,0.00,,,0.00,weatherlink.com 1.10,2013-08-03 12:05:00,
2013-08-03 08:20:00,67.0,65.0,29.80,SE,139,0.0,0.0,92,0.00,,,0.00,weatherlink.com 1.10,2013-08-03 12:20:00,
2013-08-03 08:35:00,67.5,65.0,29.80,SSE,167,0.0,1.0,90,0.00,,,0.00,weatherlink.com 1.10,2013-08-03 12:35:00,
2013-08-03 08:50:00,68.2,65.0,29.80,SSE,156,0.0,1.0,88,0.00,,,0.00,weatherlink.com 1.10,2013-08-03 12:50:00,
2013-08-03 09:05:00,68.8,65.0,29.80,SSW,203,1.0,1.0,86,0.00,,,0.00,weatherlink.com 1.10,2013-08-03 13:05:00,
2013-08-03 09:20:00,69.0,65.0,29.80,SW,221,1.0,2.0,86,0.00,,,0.00,weatherlink.com 1.10,2013-08-03 13:20:00,
2013-08-03 09:35:00,69.2,65.0,29.80,SW,231,0.0,1.0,86,0.00,,,0.00,weatherlink.com 1.10,2013-08-03 13:35:00,
2013-08-03 09:50:00,69.3,65.0,29.80,East,97,1.0,1.0,86,0.00,,,0.00,weatherlink.com 1.10,2013-08-03 13:50:00,
2013-08-03 10:05:00,69.0,65.0,29.81,ENE,68,0.0,2.0,88,0.00,,,0.00,weatherlink.com 1.10,2013-08-03 14:05:00,
2013-08-03 10:20:00,68.7,65.0,29.80,ENE,70,0.0,0.0,88,0.00,,,0.00,weatherlink.com 1.10,2013-08-03 14:20:00,
2013-08-03 10:35:00,68.5,64.0,29.80,WSW,250,0.0,2.0,86,0.00,,,0.00,weatherlink.com 1.10,2013-08-03 14:35:00,
2013-08-03 10:50:00,68.7,65.0,29.81,East,99,0.0,1.0,87,0.00,,,0.00,weatherlink.com 1.10,2013-08-03 14:50:00,
2013-08-03 11:05:00,68.9,65.0,29.81,WSW,239,0.0,1.0,86,0.00,,,0.00,weatherlink.com 1.10,2013-08-03 15:05:00,
2013-08-03 11:20:00,68.8,64.0,29.81,WSW,239,0.0,1.0,85,0.00,,,0.00,weatherlink.com 1.10,2013-08-03 15:20:00,
2013-08-03 11:35:00,69.2,65.0,29.81,WSW,239,0.0,1.0,85,0.00,,,0.00,weatherlink.com 1.10,2013-08-03 15:35:00,
2013-08-03 11:50:00,70.1,65.0,29.80,SSW,210,0.0,2.0,84,0.00,,,0.00,weatherlink.com 1.10,2013-08-03 15:50:00,
2013-08-03 12:05:00,70.9,66.0,29.80,SSE,166,0.0,1.0,84,0.00,,,0.00,weatherlink.com 1.10,2013-08-03 16:05:00,
2013-08-03 12:20:00,71.8,65.0,29.79,SW,220,1.0,2.0,78,0.00,,,0.00,weatherlink.com 1.10,2013-08-03 16:20:00,
2013-08-03 12:35:00,72.6,66.0,29.80,SSE,150,2.0,2.0,79,0.00,,,0.00,weatherlink.com 1.10,2013-08-03 16:35:00,
2013-08-03 12:50:00,73.6,67.0,29.79,WNW,294,1.0,2.0,79,0.00,,,0.00,weatherlink.com 1.10,2013-08-03 16:50:00,
2013-08-03 13:06:00,74.7,66.0,29.79,SW,228,2.0,4.0,74,0.00,,,0.00,weatherlink.com 1.10,2013-08-03 17:06:00,
2013-08-03 13:21:00,74.5,66.0,29.79,WSW,245,0.0,2.0,74,0.00,,,0.00,weatherlink.com 1.10,2013-08-03 17:21:00,
2013-08-03 13:36:00,74.0,66.0,29.79,West,269,1.0,2.0,75,0.00,,,0.00,weatherlink.com 1.10,2013-08-03 17:36:00,
2013-08-03 13:51:00,74.4,66.0,29.79,SW,225,0.0,1.0,75,0.00,,,0.00,weatherlink.com 1.10,2013-08-03 17:51:00,
2013-08-03 14:06:00,74.6,66.0,29.79,SW,232,0.0,2.0,74,0.00,,,0.00,weatherlink.com 1.10,2013-08-03 18:06:00,
2013-08-03 14:21:00,74.8,66.0,29.79,SW,225,1.0,1.0,75,0.00,,,0.00,weatherlink.com 1.10,2013-08-03 18:21:00,
2013-08-03 14:36:00,75.0,66.0,29.79,SW,219,1.0,1.0,73,0.00,,,0.00,weatherlink.com 1.10,2013-08-03 18:36:00,
2013-08-03 14:51:00,75.9,66.0,29.79,SW,214,1.0,2.0,71,0.00,,,0.00,weatherlink.com 1.10,2013-08-03 18:51:00,
2013-08-03 15:06:00,75.1,67.0,29.79,WSW,245,0.0,1.0,76,0.00,,,0.00,weatherlink.com 1.10,2013-08-03 19:06:00,
2013-08-03 15:21:00,75.0,67.0,29.78,WSW,245,0.0,1.0,76,0.00,,,0.00,weatherlink.com 1.10,2013-08-03 19:21:00,
2013-08-03 15:36:00,75.1,67.0,29.77,WSW,246,0.0,1.0,76,0.00,,,0.00,weatherlink.com 1.10,2013-08-03 19:36:00,
2013-08-03 15:51:00,75.6,65.0,29.77,South,184,1.0,1.0,70,0.00,,,0.00,weatherlink.com 1.10,2013-08-03 19:51:00,
2013-08-03 16:06:00,75.2,66.0,29.77,SSE,162,0.0,3.0,73,0.00,,,0.00,weatherlink.com 1.10,2013-08-03 20:06:00,
2013-08-03 16:21:00,75.4,66.0,29.77,WSW,256,0.0,1.0,72,0.00,,,0.00,weatherlink.com 1.10,2013-08-03 20:21:00,
2013-08-03 16:36:00,75.2,66.0,29.76,WSW,256,0.0,1.0,74,0.00,,,0.00,weatherlink.com 1.10,2013-08-03 20:36:00,
2013-08-03 16:51:00,75.2,65.0,29.76,SW,236,1.0,1.0,70,0.00,,,0.00,weatherlink.com 1.10,2013-08-03 20:51:00,
2013-08-03 17:06:00,74.8,64.0,29.76,WSW,238,0.0,1.0,69,0.00,,,0.00,weatherlink.com 1.10,2013-08-03 21:06:00,
2013-08-03 17:21:00,74.7,65.0,29.76,SW,226,0.0,1.0,72,0.00,,,0.00,weatherlink.com 1.10,2013-08-03 21:21:00,
2013-08-03 17:36:00,73.7,66.0,29.76,SW,226,0.0,0.0,76,0.00,,,0.00,weatherlink.com 1.10,2013-08-03 21:36:00,
2013-08-03 17:51:00,73.6,65.0,29.76,SW,225,0.0,1.0,75,0.00,,,0.00,weatherlink.com 1.10,2013-08-03 21:51:00,
2013-08-03 18:06:00,73.6,66.0,29.76,SW,226,0.0,1.0,77,0.00,,,0.00,weatherlink.com 1.10,2013-08-03 22:06:00,
2013-08-03 18:21:00,73.2,65.0,29.76,SW,226,0.0,1.0,76,0.00,,,0.00,weatherlink.com 1.10,2013-08-03 22:21:00,
2013-08-03 18:36:00,72.8,65.0,29.76,SW,226,0.0,0.0,77,0.00,,,0.00,weatherlink.com 1.10,2013-08-03 22:36:00,
2013-08-03 18:51:00,72.4,66.0,29.76,SW,226,0.0,0.0,81,0.00,,,0.00,weatherlink.com 1.10,2013-08-03 22:51:00,
2013-08-03 19:06:00,72.3,66.0,29.77,SW,226,0.0,0.0,81,0.00,,,0.00,weatherlink.com 1.10,2013-08-03 23:06:00,
2013-08-03 19:21:00,71.9,67.0,29.76,SW,226,0.0,0.0,83,0.00,,,0.00,weatherlink.com 1.10,2013-08-03 23:21:00,
2013-08-03 19:36:00,71.5,67.0,29.76,SW,226,0.0,0.0,84,0.00,,,0.00,weatherlink.com 1.10,2013-08-03 23:36:00,
2013-08-03 19:51:00,71.4,67.0,29.77,SW,226,0.0,0.0,85,0.00,,,0.00,weatherlink.com 1.10,2013-08-03 23:51:00,
2013-08-03 20:06:00,70.9,66.0,29.77,SW,227,0.0,0.0,85,0.00,,,0.00,weatherlink.com 1.10,2013-08-04 00:06:00,
2013-08-03 20:36:00,70.2,66.0,29.79,SSE,167,0.0,0.0,86,0.00,,,0.00,weatherlink.com 1.10,2013-08-04 00:36:00,
2013-08-03 20:51:00,69.8,66.0,29.80,South,169,0.0,0.0,87,0.00,,,0.00,weatherlink.com 1.10,2013-08-04 00:51:00,
2013-08-03 21:06:00,69.4,66.0,29.80,SSE,167,0.0,0.0,89,0.00,,,0.00,weatherlink.com 1.10,2013-08-04 01:06:00,
2013-08-03 21:21:00,68.7,66.0,29.80,SSE,166,0.0,0.0,90,0.00,,,0.00,weatherlink.com 1.10,2013-08-04 01:21:00,
2013-08-03 21:36:00,68.3,65.0,29.80,SSE,166,0.0,0.0,89,0.00,,,0.00,weatherlink.com 1.10,2013-08-04 01:36:00,
2013-08-03 21:51:00,67.9,64.0,29.81,SSE,166,0.0,0.0,87,0.00,,,0.00,weatherlink.com 1.10,2013-08-04 01:51:00,
2013-08-03 22:06:00,67.1,64.0,29.81,SSE,166,0.0,0.0,90,0.00,,,0.00,weatherlink.com 1.10,2013-08-04 02:06:00,
2013-08-03 22:21:00,66.3,64.0,29.81,SSE,166,0.0,0.0,91,0.00,,,0.00,weatherlink.com 1.10,2013-08-04 02:21:00,
2013-08-03 22:36:00,65.8,63.0,29.81,SSE,167,0.0,0.0,91,0.00,,,0.00,weatherlink.com 1.10,2013-08-04 02:36:00,
2013-08-03 23:06:00,65.0,62.0,29.81,SSE,166,0.0,0.0,91,0.00,,,0.00,weatherlink.com 1.10,2013-08-04 03:06:00,
2013-08-03 23:21:00,64.4,62.0,29.81,SSE,166,0.0,0.0,92,0.00,,,0.00,weatherlink.com 1.10,2013-08-04 03:21:00,
2013-08-03 23:51:00,63.2,62.0,29.81,SSE,166,0.0,0.0,94,0.00,,,0.00,weatherlink.com 1.10,2013-08-04 03:51:00,